sensor_id;sensor_type;location;lat;lon;timestamp;P1;durP1;ratioP1;P2;durP2;ratioP2
6223;SDS011;3145;42.726;23.342;2023-07-09T00:01:43;4.20;;;3.33;;
6223;SDS011;3145;42.726;23.342;2023-07-09T00:04:11;4.20;;;3.80;;
6223;SDS011;3145;42.726;23.342;2023-07-09T00:06:38;3.80;;;3.50;;
6223;SDS011;3145;42.726;23.342;2023-07-09T00:09:06;5.43;;;4.00;;
6223;SDS011;3145;42.726;23.342;2023-07-09T00:11:39;5.57;;;3.87;;
6223;SDS011;3145;42.726;23.342;2023-07-09T00:14:06;5.50;;;3.63;;
6223;SDS011;3145;42.726;23.342;2023-07-09T00:16:34;5.73;;;3.80;;
6223;SDS011;3145;42.726;23.342;2023-07-09T00:19:02;6.60;;;3.60;;
6223;SDS011;3145;42.726;23.342;2023-07-09T00:21:30;7.63;;;3.80;;
6223;SDS011;3145;42.726;23.342;2023-07-09T00:23:59;5.60;;;3.80;;
6223;SDS011;3145;42.726;23.342;2023-07-09T00:26:29;3.87;;;3.57;;
6223;SDS011;3145;42.726;23.342;2023-07-09T00:28:57;4.60;;;4.20;;
6223;SDS011;3145;42.726;23.342;2023-07-09T00:31:23;7.20;;;4.07;;
6223;SDS011;3145;42.726;23.342;2023-07-09T00:33:51;10.43;;;3.80;;
6223;SDS011;3145;42.726;23.342;2023-07-09T00:36:18;4.00;;;3.70;;
6223;SDS011;3145;42.726;23.342;2023-07-09T00:38:50;4.30;;;4.00;;
6223;SDS011;3145;42.726;23.342;2023-07-09T00:41:18;9.20;;;3.50;;
6223;SDS011;3145;42.726;23.342;2023-07-09T00:43:46;4.10;;;3.80;;
6223;SDS011;3145;42.726;23.342;2023-07-09T00:46:16;5.80;;;4.13;;
6223;SDS011;3145;42.726;23.342;2023-07-09T00:48:59;5.40;;;3.33;;
6223;SDS011;3145;42.726;23.342;2023-07-09T00:51:30;7.70;;;4.17;;
6223;SDS011;3145;42.726;23.342;2023-07-09T00:54:01;7.07;;;4.03;;
6223;SDS011;3145;42.726;23.342;2023-07-09T00:56:35;4.17;;;3.87;;
6223;SDS011;3145;42.726;23.342;2023-07-09T00:59:08;4.90;;;3.97;;
6223;SDS011;3145;42.726;23.342;2023-07-09T01:01:39;4.33;;;4.00;;
6223;SDS011;3145;42.726;23.342;2023-07-09T01:04:06;5.60;;;3.77;;
6223;SDS011;3145;42.726;23.342;2023-07-09T01:06:37;8.20;;;4.60;;
6223;SDS011;3145;42.726;23.342;2023-07-09T01:09:10;6.33;;;3.63;;
6223;SDS011;3145;42.726;23.342;2023-07-09T01:11:37;5.17;;;4.10;;
6223;SDS011;3145;42.726;23.342;2023-07-09T01:14:04;8.00;;;4.80;;
6223;SDS011;3145;42.726;23.342;2023-07-09T01:16:35;4.53;;;4.23;;
6223;SDS011;3145;42.726;23.342;2023-07-09T01:19:05;6.27;;;4.30;;
6223;SDS011;3145;42.726;23.342;2023-07-09T01:21:33;4.83;;;4.53;;
6223;SDS011;3145;42.726;23.342;2023-07-09T01:24:10;5.60;;;4.50;;
6223;SDS011;3145;42.726;23.342;2023-07-09T01:26:39;4.93;;;4.63;;
6223;SDS011;3145;42.726;23.342;2023-07-09T01:29:06;5.23;;;4.80;;
6223;SDS011;3145;42.726;23.342;2023-07-09T01:31:32;6.23;;;4.57;;
6223;SDS011;3145;42.726;23.342;2023-07-09T01:34:00;5.70;;;5.03;;
6223;SDS011;3145;42.726;23.342;2023-07-09T01:36:27;5.40;;;5.00;;
6223;SDS011;3145;42.726;23.342;2023-07-09T01:38:55;9.77;;;4.80;;
6223;SDS011;3145;42.726;23.342;2023-07-09T01:41:22;5.23;;;4.60;;
6223;SDS011;3145;42.726;23.342;2023-07-09T01:43:49;6.23;;;4.90;;
6223;SDS011;3145;42.726;23.342;2023-07-09T01:46:16;5.73;;;4.93;;
6223;SDS011;3145;42.726;23.342;2023-07-09T01:48:42;6.80;;;5.07;;
6223;SDS011;3145;42.726;23.342;2023-07-09T01:51:10;6.70;;;5.33;;
6223;SDS011;3145;42.726;23.342;2023-07-09T01:53:38;5.13;;;4.63;;
6223;SDS011;3145;42.726;23.342;2023-07-09T01:56:08;6.90;;;5.53;;
6223;SDS011;3145;42.726;23.342;2023-07-09T01:58:35;6.03;;;4.97;;
6223;SDS011;3145;42.726;23.342;2023-07-09T02:01:06;8.43;;;5.07;;
6223;SDS011;3145;42.726;23.342;2023-07-09T02:03:32;4.93;;;4.53;;
6223;SDS011;3145;42.726;23.342;2023-07-09T02:05:59;5.67;;;5.17;;
6223;SDS011;3145;42.726;23.342;2023-07-09T02:08:27;5.50;;;4.90;;
6223;SDS011;3145;42.726;23.342;2023-07-09T02:10:54;5.83;;;5.23;;
6223;SDS011;3145;42.726;23.342;2023-07-09T02:13:22;10.73;;;4.97;;
6223;SDS011;3145;42.726;23.342;2023-07-09T02:15:49;5.00;;;4.50;;
6223;SDS011;3145;42.726;23.342;2023-07-09T02:18:16;6.63;;;5.27;;
6223;SDS011;3145;42.726;23.342;2023-07-09T02:20:42;9.23;;;5.97;;
6223;SDS011;3145;42.726;23.342;2023-07-09T02:23:12;7.00;;;5.37;;
6223;SDS011;3145;42.726;23.342;2023-07-09T02:25:38;6.80;;;5.20;;
6223;SDS011;3145;42.726;23.342;2023-07-09T02:28:05;7.43;;;5.00;;
6223;SDS011;3145;42.726;23.342;2023-07-09T02:30:33;5.33;;;4.93;;
6223;SDS011;3145;42.726;23.342;2023-07-09T02:33:00;6.30;;;5.00;;
6223;SDS011;3145;42.726;23.342;2023-07-09T02:35:27;5.50;;;5.00;;
6223;SDS011;3145;42.726;23.342;2023-07-09T02:37:53;9.93;;;6.07;;
6223;SDS011;3145;42.726;23.342;2023-07-09T02:40:20;7.43;;;5.07;;
6223;SDS011;3145;42.726;23.342;2023-07-09T02:42:47;8.73;;;5.27;;
6223;SDS011;3145;42.726;23.342;2023-07-09T02:45:13;6.67;;;5.33;;
6223;SDS011;3145;42.726;23.342;2023-07-09T02:47:41;6.20;;;5.70;;
6223;SDS011;3145;42.726;23.342;2023-07-09T02:50:08;5.93;;;5.30;;
6223;SDS011;3145;42.726;23.342;2023-07-09T02:52:35;9.90;;;5.17;;
6223;SDS011;3145;42.726;23.342;2023-07-09T02:55:02;6.00;;;5.07;;
6223;SDS011;3145;42.726;23.342;2023-07-09T02:57:29;5.57;;;5.13;;
6223;SDS011;3145;42.726;23.342;2023-07-09T02:59:56;8.57;;;5.50;;
6223;SDS011;3145;42.726;23.342;2023-07-09T03:02:23;6.53;;;5.77;;
6223;SDS011;3145;42.726;23.342;2023-07-09T03:04:51;5.77;;;5.27;;
6223;SDS011;3145;42.726;23.342;2023-07-09T03:07:18;6.00;;;5.57;;
6223;SDS011;3145;42.726;23.342;2023-07-09T03:09:45;5.97;;;5.40;;
6223;SDS011;3145;42.726;23.342;2023-07-09T03:12:11;5.43;;;5.00;;
6223;SDS011;3145;42.726;23.342;2023-07-09T03:14:38;6.57;;;5.97;;
6223;SDS011;3145;42.726;23.342;2023-07-09T03:17:05;7.80;;;6.10;;
6223;SDS011;3145;42.726;23.342;2023-07-09T03:19:31;7.33;;;6.63;;
6223;SDS011;3145;42.726;23.342;2023-07-09T03:21:59;7.33;;;5.87;;
6223;SDS011;3145;42.726;23.342;2023-07-09T03:24:26;6.00;;;5.50;;
6223;SDS011;3145;42.726;23.342;2023-07-09T03:26:53;5.37;;;4.87;;
6223;SDS011;3145;42.726;23.342;2023-07-09T03:29:19;5.33;;;4.90;;
6223;SDS011;3145;42.726;23.342;2023-07-09T03:31:46;5.33;;;4.87;;
6223;SDS011;3145;42.726;23.342;2023-07-09T03:34:14;6.13;;;5.17;;
6223;SDS011;3145;42.726;23.342;2023-07-09T03:36:41;6.90;;;5.57;;
6223;SDS011;3145;42.726;23.342;2023-07-09T03:39:09;5.43;;;5.03;;
6223;SDS011;3145;42.726;23.342;2023-07-09T03:41:36;8.40;;;4.40;;
6223;SDS011;3145;42.726;23.342;2023-07-09T03:44:02;6.93;;;5.57;;
6223;SDS011;3145;42.726;23.342;2023-07-09T03:46:29;9.30;;;6.10;;
6223;SDS011;3145;42.726;23.342;2023-07-09T03:48:58;6.93;;;6.00;;
6223;SDS011;3145;42.726;23.342;2023-07-09T03:51:25;6.83;;;5.60;;
6223;SDS011;3145;42.726;23.342;2023-07-09T03:53:51;6.90;;;5.83;;
6223;SDS011;3145;42.726;23.342;2023-07-09T03:56:19;7.60;;;6.40;;
6223;SDS011;3145;42.726;23.342;2023-07-09T03:58:46;7.83;;;6.37;;
6223;SDS011;3145;42.726;23.342;2023-07-09T04:01:13;8.23;;;6.97;;
6223;SDS011;3145;42.726;23.342;2023-07-09T04:03:41;7.23;;;6.63;;
6223;SDS011;3145;42.726;23.342;2023-07-09T04:06:08;12.37;;;6.60;;
6223;SDS011;3145;42.726;23.342;2023-07-09T04:08:34;13.53;;;6.53;;
6223;SDS011;3145;42.726;23.342;2023-07-09T04:11:02;8.47;;;5.73;;
6223;SDS011;3145;42.726;23.342;2023-07-09T04:13:30;11.60;;;6.33;;
6223;SDS011;3145;42.726;23.342;2023-07-09T04:15:57;7.33;;;6.67;;
6223;SDS011;3145;42.726;23.342;2023-07-09T04:18:24;7.03;;;6.40;;
6223;SDS011;3145;42.726;23.342;2023-07-09T04:20:51;12.10;;;6.17;;
6223;SDS011;3145;42.726;23.342;2023-07-09T04:23:18;11.43;;;5.90;;
6223;SDS011;3145;42.726;23.342;2023-07-09T04:25:46;7.00;;;5.80;;
6223;SDS011;3145;42.726;23.342;2023-07-09T04:28:14;8.77;;;5.80;;
6223;SDS011;3145;42.726;23.342;2023-07-09T04:30:46;6.87;;;5.77;;
6223;SDS011;3145;42.726;23.342;2023-07-09T04:33:14;10.73;;;5.57;;
6223;SDS011;3145;42.726;23.342;2023-07-09T04:35:42;7.50;;;5.50;;
6223;SDS011;3145;42.726;23.342;2023-07-09T04:38:09;8.17;;;4.90;;
6223;SDS011;3145;42.726;23.342;2023-07-09T04:40:36;5.07;;;4.67;;
6223;SDS011;3145;42.726;23.342;2023-07-09T04:43:03;5.83;;;4.93;;
6223;SDS011;3145;42.726;23.342;2023-07-09T04:45:30;6.40;;;5.07;;
6223;SDS011;3145;42.726;23.342;2023-07-09T04:47:58;7.47;;;4.10;;
6223;SDS011;3145;42.726;23.342;2023-07-09T04:50:24;4.73;;;4.17;;
6223;SDS011;3145;42.726;23.342;2023-07-09T04:52:51;6.13;;;3.92;;
6223;SDS011;3145;42.726;23.342;2023-07-09T04:55:18;7.00;;;3.95;;
6223;SDS011;3145;42.726;23.342;2023-07-09T04:57:45;7.13;;;4.25;;
6223;SDS011;3145;42.726;23.342;2023-07-09T05:00:13;6.43;;;3.85;;
6223;SDS011;3145;42.726;23.342;2023-07-09T05:02:40;4.32;;;3.78;;
6223;SDS011;3145;42.726;23.342;2023-07-09T05:05:08;5.82;;;3.95;;
6223;SDS011;3145;42.726;23.342;2023-07-09T05:07:36;4.32;;;3.92;;
6223;SDS011;3145;42.726;23.342;2023-07-09T05:10:03;7.20;;;3.50;;
6223;SDS011;3145;42.726;23.342;2023-07-09T05:12:31;13.35;;;4.63;;
6223;SDS011;3145;42.726;23.342;2023-07-09T05:14:57;4.22;;;3.83;;
6223;SDS011;3145;42.726;23.342;2023-07-09T05:17:24;7.88;;;4.05;;
6223;SDS011;3145;42.726;23.342;2023-07-09T05:19:51;4.47;;;3.78;;
6223;SDS011;3145;42.726;23.342;2023-07-09T05:22:19;6.55;;;4.28;;
6223;SDS011;3145;42.726;23.342;2023-07-09T05:24:46;8.43;;;4.35;;
6223;SDS011;3145;42.726;23.342;2023-07-09T05:27:12;9.73;;;4.45;;
6223;SDS011;3145;42.726;23.342;2023-07-09T05:29:39;11.82;;;4.30;;
6223;SDS011;3145;42.726;23.342;2023-07-09T05:32:06;4.35;;;3.95;;
6223;SDS011;3145;42.726;23.342;2023-07-09T05:34:33;5.60;;;4.07;;
6223;SDS011;3145;42.726;23.342;2023-07-09T05:36:59;6.30;;;3.95;;
6223;SDS011;3145;42.726;23.342;2023-07-09T05:39:28;4.22;;;3.90;;
6223;SDS011;3145;42.726;23.342;2023-07-09T05:41:54;4.75;;;3.80;;
6223;SDS011;3145;42.726;23.342;2023-07-09T05:44:21;6.05;;;3.63;;
6223;SDS011;3145;42.726;23.342;2023-07-09T05:46:48;4.45;;;3.50;;
6223;SDS011;3145;42.726;23.342;2023-07-09T05:49:15;5.38;;;3.58;;
6223;SDS011;3145;42.726;23.342;2023-07-09T05:51:41;4.35;;;3.95;;
6223;SDS011;3145;42.726;23.342;2023-07-09T05:54:08;4.65;;;3.75;;
6223;SDS011;3145;42.726;23.342;2023-07-09T05:56:37;5.65;;;3.75;;
6223;SDS011;3145;42.726;23.342;2023-07-09T05:59:04;11.68;;;3.92;;
6223;SDS011;3145;42.726;23.342;2023-07-09T06:01:31;3.97;;;3.40;;
6223;SDS011;3145;42.726;23.342;2023-07-09T06:03:58;5.03;;;3.60;;
6223;SDS011;3145;42.726;23.342;2023-07-09T06:06:25;3.90;;;2.97;;
6223;SDS011;3145;42.726;23.342;2023-07-09T06:08:52;6.03;;;3.13;;
6223;SDS011;3145;42.726;23.342;2023-07-09T06:11:19;4.20;;;3.80;;
6223;SDS011;3145;42.726;23.342;2023-07-09T06:13:47;5.68;;;3.15;;
6223;SDS011;3145;42.726;23.342;2023-07-09T06:16:14;4.53;;;3.20;;
6223;SDS011;3145;42.726;23.342;2023-07-09T06:18:41;3.72;;;3.28;;
6223;SDS011;3145;42.726;23.342;2023-07-09T06:21:08;9.73;;;4.05;;
6223;SDS011;3145;42.726;23.342;2023-07-09T06:23:36;5.38;;;3.50;;
6223;SDS011;3145;42.726;23.342;2023-07-09T06:26:03;4.03;;;3.05;;
6223;SDS011;3145;42.726;23.342;2023-07-09T06:28:30;4.85;;;3.38;;
6223;SDS011;3145;42.726;23.342;2023-07-09T06:30:58;7.07;;;3.10;;
6223;SDS011;3145;42.726;23.342;2023-07-09T06:33:25;9.27;;;3.40;;
6223;SDS011;3145;42.726;23.342;2023-07-09T06:35:53;4.35;;;3.10;;
6223;SDS011;3145;42.726;23.342;2023-07-09T06:38:21;7.22;;;3.78;;
6223;SDS011;3145;42.726;23.342;2023-07-09T06:40:48;4.70;;;3.67;;
6223;SDS011;3145;42.726;23.342;2023-07-09T06:43:15;6.43;;;4.25;;
6223;SDS011;3145;42.726;23.342;2023-07-09T06:45:49;7.35;;;3.60;;
6223;SDS011;3145;42.726;23.342;2023-07-09T06:48:18;4.28;;;3.10;;
6223;SDS011;3145;42.726;23.342;2023-07-09T06:50:45;4.80;;;3.17;;
6223;SDS011;3145;42.726;23.342;2023-07-09T06:53:12;5.88;;;3.30;;
6223;SDS011;3145;42.726;23.342;2023-07-09T06:55:39;4.63;;;3.90;;
6223;SDS011;3145;42.726;23.342;2023-07-09T06:58:06;4.28;;;3.42;;
6223;SDS011;3145;42.726;23.342;2023-07-09T07:00:33;8.80;;;3.47;;
6223;SDS011;3145;42.726;23.342;2023-07-09T07:03:00;4.40;;;3.50;;
6223;SDS011;3145;42.726;23.342;2023-07-09T07:05:28;7.38;;;3.60;;
6223;SDS011;3145;42.726;23.342;2023-07-09T07:07:56;5.50;;;3.10;;
6223;SDS011;3145;42.726;23.342;2023-07-09T07:10:23;6.07;;;3.53;;
6223;SDS011;3145;42.726;23.342;2023-07-09T07:12:52;3.92;;;3.50;;
6223;SDS011;3145;42.726;23.342;2023-07-09T07:15:18;4.35;;;3.50;;
6223;SDS011;3145;42.726;23.342;2023-07-09T07:17:45;6.63;;;3.58;;
6223;SDS011;3145;42.726;23.342;2023-07-09T07:20:12;5.13;;;3.45;;
6223;SDS011;3145;42.726;23.342;2023-07-09T07:22:41;4.43;;;3.33;;
6223;SDS011;3145;42.726;23.342;2023-07-09T07:25:08;9.25;;;4.03;;
6223;SDS011;3145;42.726;23.342;2023-07-09T07:27:35;10.68;;;3.67;;
6223;SDS011;3145;42.726;23.342;2023-07-09T07:30:03;7.38;;;3.45;;
6223;SDS011;3145;42.726;23.342;2023-07-09T07:32:34;3.13;;;2.83;;
6223;SDS011;3145;42.726;23.342;2023-07-09T07:35:01;4.70;;;2.78;;
6223;SDS011;3145;42.726;23.342;2023-07-09T07:37:27;3.95;;;3.47;;
6223;SDS011;3145;42.726;23.342;2023-07-09T07:39:56;5.20;;;2.95;;
6223;SDS011;3145;42.726;23.342;2023-07-09T07:42:22;3.45;;;3.20;;
6223;SDS011;3145;42.726;23.342;2023-07-09T07:44:49;4.35;;;3.30;;
6223;SDS011;3145;42.726;23.342;2023-07-09T07:47:17;5.03;;;3.20;;
6223;SDS011;3145;42.726;23.342;2023-07-09T07:49:44;4.10;;;2.65;;
6223;SDS011;3145;42.726;23.342;2023-07-09T07:52:10;3.50;;;2.65;;
6223;SDS011;3145;42.726;23.342;2023-07-09T07:54:37;2.60;;;2.40;;
6223;SDS011;3145;42.726;23.342;2023-07-09T07:57:05;5.03;;;2.63;;
6223;SDS011;3145;42.726;23.342;2023-07-09T07:59:34;3.42;;;2.50;;
6223;SDS011;3145;42.726;23.342;2023-07-09T08:02:01;5.75;;;3.05;;
6223;SDS011;3145;42.726;23.342;2023-07-09T08:04:28;3.90;;;2.50;;
6223;SDS011;3145;42.726;23.342;2023-07-09T08:06:54;3.80;;;2.75;;
6223;SDS011;3145;42.726;23.342;2023-07-09T08:09:22;4.65;;;2.85;;
6223;SDS011;3145;42.726;23.342;2023-07-09T08:11:48;4.32;;;2.80;;
6223;SDS011;3145;42.726;23.342;2023-07-09T08:14:17;5.88;;;3.25;;
6223;SDS011;3145;42.726;23.342;2023-07-09T08:16:44;4.50;;;2.85;;
6223;SDS011;3145;42.726;23.342;2023-07-09T08:19:11;3.88;;;3.08;;
6223;SDS011;3145;42.726;23.342;2023-07-09T08:21:37;4.10;;;3.08;;
6223;SDS011;3145;42.726;23.342;2023-07-09T08:24:04;3.78;;;3.33;;
6223;SDS011;3145;42.726;23.342;2023-07-09T08:26:32;4.55;;;2.88;;
6223;SDS011;3145;42.726;23.342;2023-07-09T08:28:58;3.58;;;3.30;;
6223;SDS011;3145;42.726;23.342;2023-07-09T08:31:26;3.25;;;2.90;;
6223;SDS011;3145;42.726;23.342;2023-07-09T08:33:53;5.50;;;2.63;;
6223;SDS011;3145;42.726;23.342;2023-07-09T08:36:20;3.10;;;2.80;;
6223;SDS011;3145;42.726;23.342;2023-07-09T08:38:46;5.20;;;3.00;;
6223;SDS011;3145;42.726;23.342;2023-07-09T08:41:18;3.20;;;2.90;;
6223;SDS011;3145;42.726;23.342;2023-07-09T08:43:55;3.33;;;3.13;;
6223;SDS011;3145;42.726;23.342;2023-07-09T08:46:32;7.28;;;3.50;;
6223;SDS011;3145;42.726;23.342;2023-07-09T08:49:17;7.30;;;3.10;;
6223;SDS011;3145;42.726;23.342;2023-07-09T08:51:47;3.63;;;3.25;;
6223;SDS011;3145;42.726;23.342;2023-07-09T08:54:17;6.53;;;3.03;;
6223;SDS011;3145;42.726;23.342;2023-07-09T08:56:51;3.55;;;3.13;;
6223;SDS011;3145;42.726;23.342;2023-07-09T08:59:18;2.80;;;2.60;;
6223;SDS011;3145;42.726;23.342;2023-07-09T09:01:49;4.20;;;2.97;;
6223;SDS011;3145;42.726;23.342;2023-07-09T09:04:21;3.90;;;2.85;;
6223;SDS011;3145;42.726;23.342;2023-07-09T09:06:51;5.03;;;3.25;;
6223;SDS011;3145;42.726;23.342;2023-07-09T09:09:31;6.57;;;3.53;;
6223;SDS011;3145;42.726;23.342;2023-07-09T09:12:09;3.78;;;3.38;;
6223;SDS011;3145;42.726;23.342;2023-07-09T09:14:42;3.50;;;3.20;;
6223;SDS011;3145;42.726;23.342;2023-07-09T09:17:12;3.30;;;3.00;;
6223;SDS011;3145;42.726;23.342;2023-07-09T09:19:43;3.78;;;3.10;;
6223;SDS011;3145;42.726;23.342;2023-07-09T09:22:14;3.42;;;3.10;;
6223;SDS011;3145;42.726;23.342;2023-07-09T09:24:49;4.30;;;3.40;;
6223;SDS011;3145;42.726;23.342;2023-07-09T09:27:22;7.18;;;3.28;;
6223;SDS011;3145;42.726;23.342;2023-07-09T09:29:49;3.83;;;3.15;;
6223;SDS011;3145;42.726;23.342;2023-07-09T09:32:22;4.45;;;2.97;;
6223;SDS011;3145;42.726;23.342;2023-07-09T09:34:51;5.53;;;3.38;;
6223;SDS011;3145;42.726;23.342;2023-07-09T09:37:23;4.43;;;2.80;;
6223;SDS011;3145;42.726;23.342;2023-07-09T09:39:52;5.40;;;2.58;;
6223;SDS011;3145;42.726;23.342;2023-07-09T09:42:19;2.85;;;2.65;;
6223;SDS011;3145;42.726;23.342;2023-07-09T09:44:46;6.00;;;3.22;;
6223;SDS011;3145;42.726;23.342;2023-07-09T09:47:12;5.45;;;3.97;;
6223;SDS011;3145;42.726;23.342;2023-07-09T09:49:41;5.53;;;3.15;;
6223;SDS011;3145;42.726;23.342;2023-07-09T09:52:10;4.65;;;3.25;;
6223;SDS011;3145;42.726;23.342;2023-07-09T09:54:40;7.53;;;3.42;;
6223;SDS011;3145;42.726;23.342;2023-07-09T09:57:14;3.33;;;2.97;;
6223;SDS011;3145;42.726;23.342;2023-07-09T09:59:42;3.65;;;2.88;;
6223;SDS011;3145;42.726;23.342;2023-07-09T10:02:14;3.15;;;2.72;;
6223;SDS011;3145;42.726;23.342;2023-07-09T10:04:44;5.55;;;3.10;;
6223;SDS011;3145;42.726;23.342;2023-07-09T10:07:13;4.18;;;3.28;;
6223;SDS011;3145;42.726;23.342;2023-07-09T10:09:55;6.38;;;3.50;;
6223;SDS011;3145;42.726;23.342;2023-07-09T10:12:31;5.35;;;3.13;;
6223;SDS011;3145;42.726;23.342;2023-07-09T10:15:08;3.38;;;3.15;;
6223;SDS011;3145;42.726;23.342;2023-07-09T10:17:45;4.25;;;2.80;;
6223;SDS011;3145;42.726;23.342;2023-07-09T10:20:23;4.50;;;3.10;;
6223;SDS011;3145;42.726;23.342;2023-07-09T10:22:55;3.92;;;3.35;;
6223;SDS011;3145;42.726;23.342;2023-07-09T10:25:30;4.75;;;3.55;;
6223;SDS011;3145;42.726;23.342;2023-07-09T10:28:17;4.20;;;2.85;;
6223;SDS011;3145;42.726;23.342;2023-07-09T10:30:54;3.70;;;3.30;;
6223;SDS011;3145;42.726;23.342;2023-07-09T10:33:34;3.30;;;3.00;;
6223;SDS011;3145;42.726;23.342;2023-07-09T10:36:12;3.30;;;2.80;;
6223;SDS011;3145;42.726;23.342;2023-07-09T10:38:52;5.18;;;3.03;;
6223;SDS011;3145;42.726;23.342;2023-07-09T10:41:25;3.22;;;2.92;;
6223;SDS011;3145;42.726;23.342;2023-07-09T10:43:56;3.60;;;3.00;;
6223;SDS011;3145;42.726;23.342;2023-07-09T10:46:27;4.15;;;2.60;;
6223;SDS011;3145;42.726;23.342;2023-07-09T10:48:57;4.05;;;3.20;;
6223;SDS011;3145;42.726;23.342;2023-07-09T10:51:29;5.38;;;3.40;;
6223;SDS011;3145;42.726;23.342;2023-07-09T10:54:04;4.22;;;3.20;;
6223;SDS011;3145;42.726;23.342;2023-07-09T10:56:37;4.63;;;3.40;;
6223;SDS011;3145;42.726;23.342;2023-07-09T10:59:19;4.32;;;3.28;;
6223;SDS011;3145;42.726;23.342;2023-07-09T11:01:49;3.35;;;3.00;;
6223;SDS011;3145;42.726;23.342;2023-07-09T11:04:25;3.85;;;2.88;;
6223;SDS011;3145;42.726;23.342;2023-07-09T11:07:06;3.53;;;2.30;;
6223;SDS011;3145;42.726;23.342;2023-07-09T11:09:38;4.18;;;2.55;;
6223;SDS011;3145;42.726;23.342;2023-07-09T11:12:12;4.13;;;2.50;;
6223;SDS011;3145;42.726;23.342;2023-07-09T11:14:43;4.75;;;2.45;;
6223;SDS011;3145;42.726;23.342;2023-07-09T11:17:14;2.80;;;2.60;;
6223;SDS011;3145;42.726;23.342;2023-07-09T11:19:44;5.13;;;3.53;;
6223;SDS011;3145;42.726;23.342;2023-07-09T11:22:17;2.72;;;2.50;;
6223;SDS011;3145;42.726;23.342;2023-07-09T11:24:48;3.35;;;2.88;;
6223;SDS011;3145;42.726;23.342;2023-07-09T11:27:21;4.07;;;2.75;;
6223;SDS011;3145;42.726;23.342;2023-07-09T11:29:56;3.90;;;2.80;;
6223;SDS011;3145;42.726;23.342;2023-07-09T11:32:26;2.75;;;2.55;;
6223;SDS011;3145;42.726;23.342;2023-07-09T11:34:53;2.83;;;2.63;;
6223;SDS011;3145;42.726;23.342;2023-07-09T11:37:23;6.63;;;2.88;;
6223;SDS011;3145;42.726;23.342;2023-07-09T11:39:52;2.80;;;2.60;;
6223;SDS011;3145;42.726;23.342;2023-07-09T11:42:25;2.70;;;2.50;;
6223;SDS011;3145;42.726;23.342;2023-07-09T11:44:57;5.35;;;2.47;;
6223;SDS011;3145;42.726;23.342;2023-07-09T11:47:30;5.10;;;2.47;;
6223;SDS011;3145;42.726;23.342;2023-07-09T11:50:01;3.35;;;2.40;;
6223;SDS011;3145;42.726;23.342;2023-07-09T11:52:33;2.42;;;2.22;;
6223;SDS011;3145;42.726;23.342;2023-07-09T11:57:54;3.85;;;3.38;;
6223;SDS011;3145;42.726;23.342;2023-07-09T12:00:22;2.60;;;2.40;;
6223;SDS011;3145;42.726;23.342;2023-07-09T12:02:49;3.72;;;2.88;;
6223;SDS011;3145;42.726;23.342;2023-07-09T12:05:18;5.55;;;2.83;;
6223;SDS011;3145;42.726;23.342;2023-07-09T12:07:49;7.78;;;2.88;;
6223;SDS011;3145;42.726;23.342;2023-07-09T12:10:20;3.28;;;2.47;;
6223;SDS011;3145;42.726;23.342;2023-07-09T12:12:48;2.80;;;2.58;;
6223;SDS011;3145;42.726;23.342;2023-07-09T12:15:18;2.65;;;2.45;;
6223;SDS011;3145;42.726;23.342;2023-07-09T12:17:55;4.25;;;2.42;;
6223;SDS011;3145;42.726;23.342;2023-07-09T12:20:23;2.70;;;2.50;;
6223;SDS011;3145;42.726;23.342;2023-07-09T12:22:51;2.85;;;2.63;;
6223;SDS011;3145;42.726;23.342;2023-07-09T12:25:19;2.60;;;2.40;;
6223;SDS011;3145;42.726;23.342;2023-07-09T12:27:48;2.67;;;2.47;;
6223;SDS011;3145;42.726;23.342;2023-07-09T12:30:15;3.55;;;3.25;;
6223;SDS011;3145;42.726;23.342;2023-07-09T12:32:43;2.80;;;2.60;;
6223;SDS011;3145;42.726;23.342;2023-07-09T12:35:11;3.90;;;2.30;;
6223;SDS011;3145;42.726;23.342;2023-07-09T12:37:39;4.15;;;3.08;;
6223;SDS011;3145;42.726;23.342;2023-07-09T12:40:13;6.47;;;2.90;;
6223;SDS011;3145;42.726;23.342;2023-07-09T12:42:42;3.58;;;3.03;;
6223;SDS011;3145;42.726;23.342;2023-07-09T12:45:14;3.08;;;2.88;;
6223;SDS011;3145;42.726;23.342;2023-07-09T12:47:44;3.22;;;3.03;;
6223;SDS011;3145;42.726;23.342;2023-07-09T12:50:17;2.42;;;2.22;;
6223;SDS011;3145;42.726;23.342;2023-07-09T12:52:46;3.65;;;2.63;;
6223;SDS011;3145;42.726;23.342;2023-07-09T12:55:24;3.45;;;2.58;;
6223;SDS011;3145;42.726;23.342;2023-07-09T12:57:54;3.60;;;2.55;;
6223;SDS011;3145;42.726;23.342;2023-07-09T13:00:22;2.83;;;2.35;;
6223;SDS011;3145;42.726;23.342;2023-07-09T13:02:53;3.22;;;3.03;;
6223;SDS011;3145;42.726;23.342;2023-07-09T13:05:21;3.15;;;2.95;;
6223;SDS011;3145;42.726;23.342;2023-07-09T13:07:50;7.40;;;2.75;;
6223;SDS011;3145;42.726;23.342;2023-07-09T13:10:21;3.17;;;2.78;;
6223;SDS011;3145;42.726;23.342;2023-07-09T13:12:53;2.80;;;2.60;;
6223;SDS011;3145;42.726;23.342;2023-07-09T13:15:23;2.55;;;2.35;;
6223;SDS011;3145;42.726;23.342;2023-07-09T13:17:56;5.15;;;2.47;;
6223;SDS011;3145;42.726;23.342;2023-07-09T13:20:25;4.57;;;4.13;;
6223;SDS011;3145;42.726;23.342;2023-07-09T13:22:52;2.92;;;2.72;;
6223;SDS011;3145;42.726;23.342;2023-07-09T13:25:19;3.03;;;2.72;;
6223;SDS011;3145;42.726;23.342;2023-07-09T13:27:45;3.03;;;2.72;;
6223;SDS011;3145;42.726;23.342;2023-07-09T13:30:14;3.47;;;3.03;;
6223;SDS011;3145;42.726;23.342;2023-07-09T13:32:40;4.57;;;2.92;;
6223;SDS011;3145;42.726;23.342;2023-07-09T13:35:12;3.05;;;2.67;;
6223;SDS011;3145;42.726;23.342;2023-07-09T13:37:45;3.08;;;2.72;;
6223;SDS011;3145;42.726;23.342;2023-07-09T13:40:13;3.22;;;2.90;;
6223;SDS011;3145;42.726;23.342;2023-07-09T13:42:40;3.13;;;2.67;;
6223;SDS011;3145;42.726;23.342;2023-07-09T13:45:21;4.85;;;2.85;;
6223;SDS011;3145;42.726;23.342;2023-07-09T13:47:49;3.75;;;2.80;;
6223;SDS011;3145;42.726;23.342;2023-07-09T13:50:16;3.55;;;2.60;;
6223;SDS011;3145;42.726;23.342;2023-07-09T13:52:43;2.85;;;2.65;;
6223;SDS011;3145;42.726;23.342;2023-07-09T13:55:15;3.28;;;2.92;;
6223;SDS011;3145;42.726;23.342;2023-07-09T13:57:44;4.65;;;2.80;;
6223;SDS011;3145;42.726;23.342;2023-07-09T14:00:11;4.05;;;2.67;;
6223;SDS011;3145;42.726;23.342;2023-07-09T14:02:40;3.08;;;2.88;;
6223;SDS011;3145;42.726;23.342;2023-07-09T14:05:08;4.22;;;3.30;;
6223;SDS011;3145;42.726;23.342;2023-07-09T14:07:37;8.52;;;3.20;;
6223;SDS011;3145;42.726;23.342;2023-07-09T14:10:07;3.63;;;3.03;;
6223;SDS011;3145;42.726;23.342;2023-07-09T14:12:37;5.32;;;2.50;;
6223;SDS011;3145;42.726;23.342;2023-07-09T14:15:11;3.78;;;2.90;;
6223;SDS011;3145;42.726;23.342;2023-07-09T14:17:41;4.30;;;3.28;;
6223;SDS011;3145;42.726;23.342;2023-07-09T14:20:10;2.97;;;2.45;;
6223;SDS011;3145;42.726;23.342;2023-07-09T14:22:38;4.88;;;2.85;;
6223;SDS011;3145;42.726;23.342;2023-07-09T14:25:09;5.85;;;4.50;;
6223;SDS011;3145;42.726;23.342;2023-07-09T14:27:42;3.05;;;2.72;;
6223;SDS011;3145;42.726;23.342;2023-07-09T14:30:09;3.22;;;3.03;;
6223;SDS011;3145;42.726;23.342;2023-07-09T14:32:42;4.45;;;3.42;;
6223;SDS011;3145;42.726;23.342;2023-07-09T14:35:11;3.00;;;2.80;;
6223;SDS011;3145;42.726;23.342;2023-07-09T14:37:39;5.28;;;2.92;;
6223;SDS011;3145;42.726;23.342;2023-07-09T14:40:07;7.07;;;3.83;;
6223;SDS011;3145;42.726;23.342;2023-07-09T14:42:34;3.42;;;3.20;;
6223;SDS011;3145;42.726;23.342;2023-07-09T14:45:01;3.38;;;2.92;;
6223;SDS011;3145;42.726;23.342;2023-07-09T14:47:28;3.22;;;3.00;;
6223;SDS011;3145;42.726;23.342;2023-07-09T14:49:56;3.83;;;3.42;;
6223;SDS011;3145;42.726;23.342;2023-07-09T14:52:23;3.50;;;2.75;;
6223;SDS011;3145;42.726;23.342;2023-07-09T14:54:50;3.85;;;2.78;;
6223;SDS011;3145;42.726;23.342;2023-07-09T14:57:20;3.47;;;3.08;;
6223;SDS011;3145;42.726;23.342;2023-07-09T14:59:49;3.40;;;3.15;;
6223;SDS011;3145;42.726;23.342;2023-07-09T15:02:21;3.20;;;3.00;;
6223;SDS011;3145;42.726;23.342;2023-07-09T15:04:51;3.30;;;3.00;;
6223;SDS011;3145;42.726;23.342;2023-07-09T15:07:19;3.20;;;2.92;;
6223;SDS011;3145;42.726;23.342;2023-07-09T15:09:46;9.98;;;5.90;;
6223;SDS011;3145;42.726;23.342;2023-07-09T15:12:15;5.65;;;2.72;;
6223;SDS011;3145;42.726;23.342;2023-07-09T15:14:44;3.83;;;2.95;;